sensor_id;sensor_type;location;lat;lon;timestamp;pressure;altitude;pressure_sealevel;temperature;humidity
7018;BME280;3549;42.162;24.726;2023-05-20T00:01:59;47732.44;;;-141.97;93.49
7018;BME280;3549;42.162;24.726;2023-05-20T00:04:24;47805.47;;;-141.97;94.46
7018;BME280;3549;42.162;24.726;2023-05-20T00:06:50;47588.28;;;-141.97;94.96
7018;BME280;3549;42.162;24.726;2023-05-20T00:09:15;47745.88;;;-141.97;95.04
7018;BME280;3549;42.162;24.726;2023-05-20T00:11:44;47707.44;;;-141.97;95.10
7018;BME280;3549;42.162;24.726;2023-05-20T00:14:10;47574.81;;;-141.97;95.05
7018;BME280;3549;42.162;24.726;2023-05-20T00:16:35;47551.75;;;-141.97;94.54
7018;BME280;3549;42.162;24.726;2023-05-20T00:19:01;47626.72;;;-141.97;94.21
7018;BME280;3549;42.162;24.726;2023-05-20T00:21:26;47482.56;;;-141.97;93.58
7018;BME280;3549;42.162;24.726;2023-05-20T00:23:51;47834.31;;;-141.97;92.99
7018;BME280;3549;42.162;24.726;2023-05-20T00:26:17;47580.59;;;-141.97;92.96
7018;BME280;3549;42.162;24.726;2023-05-20T00:28:43;47709.38;;;-141.97;93.20
7018;BME280;3549;42.162;24.726;2023-05-20T00:31:08;47842.00;;;-141.97;94.53
7018;BME280;3549;42.162;24.726;2023-05-20T00:33:34;47711.28;;;-141.97;94.29
7018;BME280;3549;42.162;24.726;2023-05-20T00:36:00;47847.75;;;-141.97;93.73
7018;BME280;3549;42.162;24.726;2023-05-20T00:38:26;47522.91;;;-141.97;93.59
7018;BME280;3549;42.162;24.726;2023-05-20T00:40:51;47572.91;;;-141.97;93.95
7018;BME280;3549;42.162;24.726;2023-05-20T00:43:17;47682.47;;;-141.97;93.48
7018;BME280;3549;42.162;24.726;2023-05-20T00:45:42;47574.81;;;-141.97;93.89
7018;BME280;3549;42.162;24.726;2023-05-20T00:48:07;47730.50;;;-141.97;93.66
7018;BME280;3549;42.162;24.726;2023-05-20T00:50:33;47738.19;;;-141.97;94.05
7018;BME280;3549;42.162;24.726;2023-05-20T00:53:00;47553.69;;;-141.97;94.09
7018;BME280;3549;42.162;24.726;2023-05-20T00:55:25;47749.72;;;-141.97;93.93
7018;BME280;3549;42.162;24.726;2023-05-20T00:57:51;47724.75;;;-141.97;95.00
7018;BME280;3549;42.162;24.726;2023-05-20T01:00:17;47672.84;;;-141.97;95.91
7018;BME280;3549;42.162;24.726;2023-05-20T01:02:43;47542.16;;;-141.97;96.64
7018;BME280;3549;42.162;24.726;2023-05-20T01:05:08;47822.78;;;-141.97;97.10
7018;BME280;3549;42.162;24.726;2023-05-20T01:07:34;47703.59;;;-141.97;97.72
7018;BME280;3549;42.162;24.726;2023-05-20T01:09:59;47738.19;;;-141.97;98.30
7018;BME280;3549;42.162;24.726;2023-05-20T01:12:27;47676.69;;;-141.97;98.38
7018;BME280;3549;42.162;24.726;2023-05-20T01:15:02;47761.25;;;-141.97;98.60
7018;BME280;3549;42.162;24.726;2023-05-20T01:17:31;47670.91;;;-141.97;99.08
7018;BME280;3549;42.162;24.726;2023-05-20T01:20:02;47718.97;;;-141.97;99.65
7018;BME280;3549;42.162;24.726;2023-05-20T01:22:29;47478.72;;;-141.97;100.00
7018;BME280;3549;42.162;24.726;2023-05-20T01:24:55;47747.81;;;-141.97;99.19
7018;BME280;3549;42.162;24.726;2023-05-20T01:27:22;47644.00;;;-141.97;99.30
7018;BME280;3549;42.162;24.726;2023-05-20T01:29:49;47734.34;;;-141.97;98.86
7018;BME280;3549;42.162;24.726;2023-05-20T01:32:20;47742.03;;;-141.97;98.72
7018;BME280;3549;42.162;24.726;2023-05-20T01:34:48;47726.66;;;-141.97;99.25
7018;BME280;3549;42.162;24.726;2023-05-20T01:37:16;47726.66;;;-141.97;98.84
7018;BME280;3549;42.162;24.726;2023-05-20T01:39:43;47820.84;;;-141.97;99.41
7018;BME280;3549;42.162;24.726;2023-05-20T01:42:09;47784.34;;;-141.97;99.41
7018;BME280;3549;42.162;24.726;2023-05-20T01:44:35;47657.47;;;-141.97;99.73
7018;BME280;3549;42.162;24.726;2023-05-20T01:47:01;47701.69;;;-141.97;100.00
7018;BME280;3549;42.162;24.726;2023-05-20T01:49:26;47749.72;;;-141.97;100.00
7018;BME280;3549;42.162;24.726;2023-05-20T01:51:52;47763.19;;;-141.97;100.00
7018;BME280;3549;42.162;24.726;2023-05-20T01:54:17;47720.91;;;-141.97;100.00
7018;BME280;3549;42.162;24.726;2023-05-20T01:56:44;47843.91;;;-141.97;100.00
7018;BME280;3549;42.162;24.726;2023-05-20T01:59:10;47840.06;;;-141.97;100.00
7018;BME280;3549;42.162;24.726;2023-05-20T02:01:35;47599.81;;;-141.97;100.00
7018;BME280;3549;42.162;24.726;2023-05-20T02:04:00;47595.97;;;-141.97;100.00
7018;BME280;3549;42.162;24.726;2023-05-20T02:06:26;47815.09;;;-141.97;100.00
7018;BME280;3549;42.162;24.726;2023-05-20T02:08:51;47588.28;;;-141.97;100.00
7018;BME280;3549;42.162;24.726;2023-05-20T02:11:17;47740.13;;;-141.97;100.00
7018;BME280;3549;42.162;24.726;2023-05-20T02:13:42;47730.50;;;-141.97;100.00
7018;BME280;3549;42.162;24.726;2023-05-20T02:16:07;47547.91;;;-141.97;100.00
7018;BME280;3549;42.162;24.726;2023-05-20T02:18:33;47599.81;;;-141.97;100.00
7018;BME280;3549;42.162;24.726;2023-05-20T02:21:02;47745.88;;;-141.97;100.00
7018;BME280;3549;42.162;24.726;2023-05-20T02:23:28;47692.06;;;-141.97;100.00
7018;BME280;3549;42.162;24.726;2023-05-20T02:25:53;47826.63;;;-141.97;100.00
7018;BME280;3549;42.162;24.726;2023-05-20T02:28:19;47722.81;;;-141.97;100.00
7018;BME280;3549;42.162;24.726;2023-05-20T02:30:44;47803.56;;;-141.97;100.00
7018;BME280;3549;42.162;24.726;2023-05-20T02:33:10;47695.91;;;-141.97;100.00
7018;BME280;3549;42.162;24.726;2023-05-20T02:35:36;47632.47;;;-141.97;100.00
7018;BME280;3549;42.162;24.726;2023-05-20T02:38:01;47619.03;;;-141.97;100.00
7018;BME280;3549;42.162;24.726;2023-05-20T02:40:27;47676.69;;;-141.97;100.00
7018;BME280;3549;42.162;24.726;2023-05-20T02:42:52;47726.66;;;-141.97;100.00
7018;BME280;3549;42.162;24.726;2023-05-20T02:45:18;47784.34;;;-141.97;100.00
7018;BME280;3549;42.162;24.726;2023-05-20T02:47:43;47715.13;;;-141.97;100.00
7018;BME280;3549;42.162;24.726;2023-05-20T02:50:09;47761.25;;;-141.97;100.00
7018;BME280;3549;42.162;24.726;2023-05-20T02:52:34;47730.50;;;-141.97;100.00
7018;BME280;3549;42.162;24.726;2023-05-20T02:55:00;47705.53;;;-141.97;100.00
7018;BME280;3549;42.162;24.726;2023-05-20T02:57:26;47734.34;;;-141.97;100.00
7018;BME280;3549;42.162;24.726;2023-05-20T02:59:53;47866.97;;;-141.97;100.00
7018;BME280;3549;42.162;24.726;2023-05-20T03:02:18;47815.09;;;-141.97;100.00
7018;BME280;3549;42.162;24.726;2023-05-20T03:04:44;47678.63;;;-141.97;100.00
7018;BME280;3549;42.162;24.726;2023-05-20T03:07:11;47695.91;;;-141.97;100.00
7018;BME280;3549;42.162;24.726;2023-05-20T03:09:36;47584.44;;;-141.97;100.00
7018;BME280;3549;42.162;24.726;2023-05-20T03:12:02;47657.47;;;-141.97;100.00
7018;BME280;3549;42.162;24.726;2023-05-20T03:14:27;47594.03;;;-141.97;100.00
7018;BME280;3549;42.162;24.726;2023-05-20T03:16:53;47588.28;;;-141.97;100.00
7018;BME280;3549;42.162;24.726;2023-05-20T03:19:21;47828.53;;;-141.97;100.00
7018;BME280;3549;42.162;24.726;2023-05-20T03:21:47;47801.63;;;-141.97;100.00
7018;BME280;3549;42.162;24.726;2023-05-20T03:24:14;47626.72;;;-141.97;100.00
7018;BME280;3549;42.162;24.726;2023-05-20T03:26:40;47807.41;;;-141.97;100.00
7018;BME280;3549;42.162;24.726;2023-05-20T03:29:10;47822.78;;;-141.97;100.00
7018;BME280;3549;42.162;24.726;2023-05-20T03:31:35;47630.56;;;-141.97;100.00
7018;BME280;3549;42.162;24.726;2023-05-20T03:34:01;47715.13;;;-141.97;100.00
7018;BME280;3549;42.162;24.726;2023-05-20T03:36:26;47753.56;;;-141.97;100.00
7018;BME280;3549;42.162;24.726;2023-05-20T03:38:52;47622.88;;;-141.97;100.00
7018;BME280;3549;42.162;24.726;2023-05-20T03:41:18;47855.44;;;-141.97;100.00
7018;BME280;3549;42.162;24.726;2023-05-20T03:43:43;47772.78;;;-141.97;100.00
7018;BME280;3549;42.162;24.726;2023-05-20T03:46:09;47570.97;;;-141.97;100.00
7018;BME280;3549;42.162;24.726;2023-05-20T03:48:34;47667.06;;;-141.97;100.00
7018;BME280;3549;42.162;24.726;2023-05-20T03:51:00;47559.44;;;-141.97;100.00
7018;BME280;3549;42.162;24.726;2023-05-20T03:53:26;47694.00;;;-141.97;100.00
7018;BME280;3549;42.162;24.726;2023-05-20T03:55:51;47703.59;;;-141.97;100.00
7018;BME280;3549;42.162;24.726;2023-05-20T03:58:17;47726.66;;;-141.97;100.00
7018;BME280;3549;42.162;24.726;2023-05-20T04:00:45;47718.97;;;-141.97;100.00
7018;BME280;3549;42.162;24.726;2023-05-20T04:03:11;47722.81;;;-141.97;100.00
7018;BME280;3549;42.162;24.726;2023-05-20T04:05:37;47624.78;;;-141.97;100.00
7018;BME280;3549;42.162;24.726;2023-05-20T04:08:02;47718.97;;;-141.97;100.00
7018;BME280;3549;42.162;24.726;2023-05-20T04:10:29;47690.16;;;-141.97;100.00
7018;BME280;3549;42.162;24.726;2023-05-20T04:12:56;47697.84;;;-141.97;100.00
7018;BME280;3549;42.162;24.726;2023-05-20T04:15:22;47722.81;;;-141.97;100.00
7018;BME280;3549;42.162;24.726;2023-05-20T04:17:48;47830.47;;;-141.97;100.00
7018;BME280;3549;42.162;24.726;2023-05-20T04:20:14;47738.19;;;-141.97;100.00
7018;BME280;3549;42.162;24.726;2023-05-20T04:22:40;47707.44;;;-141.97;100.00
7018;BME280;3549;42.162;24.726;2023-05-20T04:25:06;47722.81;;;-141.97;100.00
7018;BME280;3549;42.162;24.726;2023-05-20T04:27:32;47759.34;;;-141.97;100.00
7018;BME280;3549;42.162;24.726;2023-05-20T04:30:02;47865.06;;;-141.97;100.00
7018;BME280;3549;42.162;24.726;2023-05-20T04:32:29;47851.59;;;-141.97;100.00
7018;BME280;3549;42.162;24.726;2023-05-20T04:34:55;47776.63;;;-141.97;100.00
7018;BME280;3549;42.162;24.726;2023-05-20T04:37:21;47832.38;;;-141.97;100.00
7018;BME280;3549;42.162;24.726;2023-05-20T04:39:47;47818.94;;;-141.97;100.00
7018;BME280;3549;42.162;24.726;2023-05-20T04:42:14;47676.69;;;-141.97;100.00
7018;BME280;3549;42.162;24.726;2023-05-20T04:44:42;47657.47;;;-141.97;100.00
7018;BME280;3549;42.162;24.726;2023-05-20T04:47:10;47711.28;;;-141.97;100.00
7018;BME280;3549;42.162;24.726;2023-05-20T04:49:36;47615.19;;;-141.97;100.00
7018;BME280;3549;42.162;24.726;2023-05-20T04:52:02;47749.72;;;-141.97;100.00
7018;BME280;3549;42.162;24.726;2023-05-20T04:54:29;47880.44;;;-141.97;100.00
7018;BME280;3549;42.162;24.726;2023-05-20T04:56:55;47522.91;;;-141.97;100.00
7018;BME280;3549;42.162;24.726;2023-05-20T04:59:20;47547.91;;;-141.97;100.00
7018;BME280;3549;42.162;24.726;2023-05-20T05:01:46;47672.84;;;-141.97;100.00
7018;BME280;3549;42.162;24.726;2023-05-20T05:04:11;47690.16;;;-141.97;100.00
7018;BME280;3549;42.162;24.726;2023-05-20T05:06:37;47738.19;;;-141.97;100.00
7018;BME280;3549;42.162;24.726;2023-05-20T05:09:02;47620.94;;;-141.97;100.00
7018;BME280;3549;42.162;24.726;2023-05-20T05:11:29;47619.03;;;-141.97;83.75
7018;BME280;3549;42.162;24.726;2023-05-20T05:13:54;47511.38;;;-141.97;79.96
7018;BME280;3549;42.162;24.726;2023-05-20T05:16:20;47688.22;;;-141.97;80.62
7018;BME280;3549;42.162;24.726;2023-05-20T05:18:45;47678.63;;;-141.97;80.13
7018;BME280;3549;42.162;24.726;2023-05-20T05:21:11;47761.25;;;-141.97;77.48
7018;BME280;3549;42.162;24.726;2023-05-20T05:23:36;47834.31;;;-141.97;76.69
7018;BME280;3549;42.162;24.726;2023-05-20T05:26:01;47784.34;;;-141.97;74.98
7018;BME280;3549;42.162;24.726;2023-05-20T05:28:27;47526.75;;;-141.97;73.88
7018;BME280;3549;42.162;24.726;2023-05-20T05:30:53;47734.34;;;-141.97;74.19
7018;BME280;3549;42.162;24.726;2023-05-20T05:33:20;47715.13;;;-141.97;73.89
7018;BME280;3549;42.162;24.726;2023-05-20T05:35:46;47680.53;;;-141.97;75.10
7018;BME280;3549;42.162;24.726;2023-05-20T05:38:11;47834.31;;;-141.97;73.70
7018;BME280;3549;42.162;24.726;2023-05-20T05:40:37;47622.88;;;-141.97;72.77
7018;BME280;3549;42.162;24.726;2023-05-20T05:43:02;47695.91;;;-141.97;71.23
7018;BME280;3549;42.162;24.726;2023-05-20T05:45:28;47638.25;;;-141.97;71.35
7018;BME280;3549;42.162;24.726;2023-05-20T05:47:53;47659.38;;;-141.97;70.34
7018;BME280;3549;42.162;24.726;2023-05-20T05:50:19;47619.03;;;-141.97;69.49
7018;BME280;3549;42.162;24.726;2023-05-20T05:52:44;47845.84;;;-141.97;68.19
7018;BME280;3549;42.162;24.726;2023-05-20T05:55:11;47496.00;;;-141.97;68.65
7018;BME280;3549;42.162;24.726;2023-05-20T05:57:36;47697.84;;;-141.97;70.07
7018;BME280;3549;42.162;24.726;2023-05-20T06:00:02;47826.63;;;-141.97;71.02
7018;BME280;3549;42.162;24.726;2023-05-20T06:02:28;47492.16;;;-141.97;69.55
7018;BME280;3549;42.162;24.726;2023-05-20T06:04:54;47515.22;;;-141.97;68.21
7018;BME280;3549;42.162;24.726;2023-05-20T06:07:19;47542.16;;;-141.97;67.82
7018;BME280;3549;42.162;24.726;2023-05-20T06:09:45;47799.72;;;-141.97;66.97
7018;BME280;3549;42.162;24.726;2023-05-20T06:12:11;47772.78;;;-141.97;65.73
7018;BME280;3549;42.162;24.726;2023-05-20T06:14:36;47738.19;;;-141.97;67.48
7018;BME280;3549;42.162;24.726;2023-05-20T06:17:02;47707.44;;;-141.97;67.15
7018;BME280;3549;42.162;24.726;2023-05-20T06:19:28;47563.28;;;-141.97;67.12
7018;BME280;3549;42.162;24.726;2023-05-20T06:21:55;47793.94;;;-141.97;66.41
7018;BME280;3549;42.162;24.726;2023-05-20T06:24:20;47807.41;;;-141.97;65.00
7018;BME280;3549;42.162;24.726;2023-05-20T06:26:46;47651.69;;;-141.97;64.83
7018;BME280;3549;42.162;24.726;2023-05-20T06:29:14;47845.84;;;-141.97;64.12
7018;BME280;3549;42.162;24.726;2023-05-20T06:31:39;47803.56;;;-141.97;62.96
7018;BME280;3549;42.162;24.726;2023-05-20T06:34:04;47588.28;;;-141.97;62.17
7018;BME280;3549;42.162;24.726;2023-05-20T06:36:30;47665.16;;;-141.97;61.04
7018;BME280;3549;42.162;24.726;2023-05-20T06:38:55;47705.53;;;-141.97;59.23
7018;BME280;3549;42.162;24.726;2023-05-20T06:41:21;47665.16;;;-141.97;59.42
7018;BME280;3549;42.162;24.726;2023-05-20T06:43:46;47592.13;;;-141.97;58.13
7018;BME280;3549;42.162;24.726;2023-05-20T06:46:12;47669.00;;;-141.97;57.40
7018;BME280;3549;42.162;24.726;2023-05-20T06:48:37;47509.47;;;-141.97;56.71
7018;BME280;3549;42.162;24.726;2023-05-20T06:51:06;47626.72;;;-141.97;56.65
7018;BME280;3549;42.162;24.726;2023-05-20T06:53:33;47499.84;;;-141.97;56.48
7018;BME280;3549;42.162;24.726;2023-05-20T06:55:59;47546.00;;;-141.97;55.66
7018;BME280;3549;42.162;24.726;2023-05-20T06:58:25;47792.03;;;-141.97;54.93
7018;BME280;3549;42.162;24.726;2023-05-20T07:00:50;47622.88;;;-141.97;54.76
7018;BME280;3549;42.162;24.726;2023-05-20T07:03:16;47682.47;;;-141.97;55.09
7018;BME280;3549;42.162;24.726;2023-05-20T07:05:41;47634.41;;;-141.97;53.96
7018;BME280;3549;42.162;24.726;2023-05-20T07:08:07;47642.09;;;-141.97;52.45
7018;BME280;3549;42.162;24.726;2023-05-20T07:10:33;47707.44;;;-141.97;52.01
7018;BME280;3549;42.162;24.726;2023-05-20T07:12:58;47824.69;;;-141.97;51.64
7018;BME280;3549;42.162;24.726;2023-05-20T07:15:24;47784.34;;;-141.97;51.35
7018;BME280;3549;42.162;24.726;2023-05-20T07:17:49;47530.59;;;-141.97;50.90
7018;BME280;3549;42.162;24.726;2023-05-20T07:20:15;47605.56;;;-141.97;50.75
7018;BME280;3549;42.162;24.726;2023-05-20T07:22:41;47715.13;;;-141.97;49.54
7018;BME280;3549;42.162;24.726;2023-05-20T07:25:07;47619.03;;;-141.97;50.11
7018;BME280;3549;42.162;24.726;2023-05-20T07:27:32;47768.94;;;-141.97;49.33
7018;BME280;3549;42.162;24.726;2023-05-20T07:29:58;47484.47;;;-141.97;49.17
7018;BME280;3549;42.162;24.726;2023-05-20T07:32:23;47542.16;;;-141.97;48.64
7018;BME280;3549;42.162;24.726;2023-05-20T07:34:48;47628.63;;;-141.97;47.81
7018;BME280;3549;42.162;24.726;2023-05-20T07:37:15;47588.28;;;-141.97;47.17
7018;BME280;3549;42.162;24.726;2023-05-20T07:42:11;47547.91;;;-141.97;46.26
7018;BME280;3549;42.162;24.726;2023-05-20T07:44:36;47601.72;;;-141.97;46.37
7018;BME280;3549;42.162;24.726;2023-05-20T07:47:02;47588.28;;;-141.97;45.31
7018;BME280;3549;42.162;24.726;2023-05-20T07:49:27;47701.69;;;-141.97;45.05
7018;BME280;3549;42.162;24.726;2023-05-20T07:51:53;47346.09;;;-141.97;41.44
7018;BME280;3549;42.162;24.726;2023-05-20T07:54:18;47611.34;;;-141.97;43.68
7018;BME280;3549;42.162;24.726;2023-05-20T07:56:44;47644.00;;;-141.97;44.05
7018;BME280;3549;42.162;24.726;2023-05-20T07:59:09;47392.22;;;-141.97;42.96
7018;BME280;3549;42.162;24.726;2023-05-20T08:01:35;47348.03;;;-141.97;41.79
7018;BME280;3549;42.162;24.726;2023-05-20T08:04:00;47549.84;;;-141.97;41.16
7018;BME280;3549;42.162;24.726;2023-05-20T08:06:26;47697.84;;;-141.97;41.51
7018;BME280;3549;42.162;24.726;2023-05-20T08:08:51;47472.94;;;-141.97;42.08
7018;BME280;3549;42.162;24.726;2023-05-20T08:11:20;47361.47;;;-141.97;41.59
7018;BME280;3549;42.162;24.726;2023-05-20T08:13:47;47726.66;;;-141.97;41.93
7018;BME280;3549;42.162;24.726;2023-05-20T08:16:12;47740.13;;;-141.97;41.21
7018;BME280;3549;42.162;24.726;2023-05-20T08:18:38;47303.81;;;-141.97;41.65
7018;BME280;3549;42.162;24.726;2023-05-20T08:21:06;47526.75;;;-141.97;41.88
7018;BME280;3549;42.162;24.726;2023-05-20T08:23:32;47715.13;;;-141.97;41.19
7018;BME280;3549;42.162;24.726;2023-05-20T08:25:58;47449.88;;;-141.97;41.83
7018;BME280;3549;42.162;24.726;2023-05-20T08:28:29;47582.50;;;-141.97;41.20
7018;BME280;3549;42.162;24.726;2023-05-20T08:30:55;47534.44;;;-141.97;40.00
7018;BME280;3549;42.162;24.726;2023-05-20T08:33:21;47563.28;;;-141.97;39.41
7018;BME280;3549;42.162;24.726;2023-05-20T08:35:49;47728.59;;;-141.97;39.66
7018;BME280;3549;42.162;24.726;2023-05-20T08:38:14;47413.38;;;-141.97;39.17
7018;BME280;3549;42.162;24.726;2023-05-20T08:40:40;47405.69;;;-141.97;39.44
7018;BME280;3549;42.162;24.726;2023-05-20T08:43:05;47311.50;;;-141.97;38.56
7018;BME280;3549;42.162;24.726;2023-05-20T08:45:33;47449.88;;;-141.97;38.85
7018;BME280;3549;42.162;24.726;2023-05-20T08:47:59;47544.06;;;-141.97;38.78
7018;BME280;3549;42.162;24.726;2023-05-20T08:50:25;47742.03;;;-141.97;39.31
7018;BME280;3549;42.162;24.726;2023-05-20T08:52:50;47784.34;;;-141.97;39.46
7018;BME280;3549;42.162;24.726;2023-05-20T08:55:18;47632.47;;;-141.97;38.19
7018;BME280;3549;42.162;24.726;2023-05-20T08:57:49;47772.78;;;-141.97;38.33
7018;BME280;3549;42.162;24.726;2023-05-20T09:00:15;47530.59;;;-141.97;38.73
7018;BME280;3549;42.162;24.726;2023-05-20T09:02:42;47751.66;;;-141.97;38.70
7018;BME280;3549;42.162;24.726;2023-05-20T09:05:09;47565.22;;;-141.97;39.18
7018;BME280;3549;42.162;24.726;2023-05-20T09:07:35;47582.50;;;-141.97;39.56
7018;BME280;3549;42.162;24.726;2023-05-20T09:10:00;47599.81;;;-141.97;38.36
7018;BME280;3549;42.162;24.726;2023-05-20T09:12:26;47649.78;;;-141.97;37.67
7018;BME280;3549;42.162;24.726;2023-05-20T09:14:51;47496.00;;;-141.97;38.35
7018;BME280;3549;42.162;24.726;2023-05-20T09:17:17;47419.13;;;-141.97;37.67
7018;BME280;3549;42.162;24.726;2023-05-20T09:19:43;47365.31;;;-141.97;37.69
7018;BME280;3549;42.162;24.726;2023-05-20T09:22:08;47751.66;;;-141.97;38.51
7018;BME280;3549;42.162;24.726;2023-05-20T09:24:34;47444.13;;;-141.97;39.61
7018;BME280;3549;42.162;24.726;2023-05-20T09:26:59;47705.53;;;-141.97;38.80
7018;BME280;3549;42.162;24.726;2023-05-20T09:29:25;47503.69;;;-141.97;37.63
7018;BME280;3549;42.162;24.726;2023-05-20T09:31:51;47509.47;;;-141.97;37.75
7018;BME280;3549;42.162;24.726;2023-05-20T09:34:19;47530.59;;;-141.97;38.70
7018;BME280;3549;42.162;24.726;2023-05-20T09:36:48;47451.81;;;-141.97;39.68
7018;BME280;3549;42.162;24.726;2023-05-20T09:39:17;47567.13;;;-141.97;39.53
7018;BME280;3549;42.162;24.726;2023-05-20T09:42:01;47582.50;;;-141.97;40.52
7018;BME280;3549;42.162;24.726;2023-05-20T09:44:30;47569.06;;;-141.97;41.29
7018;BME280;3549;42.162;24.726;2023-05-20T09:46:56;47732.44;;;-141.97;40.30
7018;BME280;3549;42.162;24.726;2023-05-20T09:49:24;47534.44;;;-141.97;38.58
7018;BME280;3549;42.162;24.726;2023-05-20T09:51:54;47521.00;;;-141.97;38.20
7018;BME280;3549;42.162;24.726;2023-05-20T09:54:27;47396.06;;;-141.97;38.88
7018;BME280;3549;42.162;24.726;2023-05-20T09:56:57;47403.75;;;-141.97;38.99
7018;BME280;3549;42.162;24.726;2023-05-20T09:59:26;47378.78;;;-141.97;38.68
7018;BME280;3549;42.162;24.726;2023-05-20T10:01:51;47603.66;;;-141.97;38.53
7018;BME280;3549;42.162;24.726;2023-05-20T10:04:18;47424.91;;;-141.97;39.21
7018;BME280;3549;42.162;24.726;2023-05-20T10:14:51;47607.50;;;-141.97;43.10
7018;BME280;3549;42.162;24.726;2023-05-20T10:17:53;47584.44;;;-141.97;43.50
7018;BME280;3549;42.162;24.726;2023-05-20T10:20:22;47784.34;;;-141.97;43.79
7018;BME280;3549;42.162;24.726;2023-05-20T10:22:55;47536.38;;;-141.97;44.13
7018;BME280;3549;42.162;24.726;2023-05-20T10:25:28;47640.16;;;-141.97;44.48
7018;BME280;3549;42.162;24.726;2023-05-20T10:28:06;47595.97;;;-141.97;43.71
7018;BME280;3549;42.162;24.726;2023-05-20T10:30:32;47694.00;;;-141.97;42.10
7018;BME280;3549;42.162;24.726;2023-05-20T10:33:02;47536.38;;;-141.97;40.21
7018;BME280;3549;42.162;24.726;2023-05-20T10:35:29;47603.66;;;-141.97;40.28
7018;BME280;3549;42.162;24.726;2023-05-20T10:38:16;47559.44;;;-141.97;39.46
7018;BME280;3549;42.162;24.726;2023-05-20T10:40:47;47743.97;;;-141.97;39.31
7018;BME280;3549;42.162;24.726;2023-05-20T10:43:14;47457.56;;;-141.97;39.36
7018;BME280;3549;42.162;24.726;2023-05-20T10:45:50;47563.28;;;-141.97;39.27
7018;BME280;3549;42.162;24.726;2023-05-20T10:48:34;47499.84;;;-141.97;39.57
7018;BME280;3549;42.162;24.726;2023-05-20T10:51:02;47759.34;;;-141.97;39.64
7018;BME280;3549;42.162;24.726;2023-05-20T10:53:40;47563.28;;;-141.97;39.97
7018;BME280;3549;42.162;24.726;2023-05-20T10:56:16;47503.69;;;-141.97;40.96
7018;BME280;3549;42.162;24.726;2023-05-20T10:58:43;47726.66;;;-141.97;41.95
7018;BME280;3549;42.162;24.726;2023-05-20T11:01:09;47557.53;;;-141.97;42.08
7018;BME280;3549;42.162;24.726;2023-05-20T11:03:35;47532.53;;;-141.97;41.88
7018;BME280;3549;42.162;24.726;2023-05-20T11:06:10;47511.38;;;-141.97;41.99
7018;BME280;3549;42.162;24.726;2023-05-20T11:08:36;47649.78;;;-141.97;41.73
7018;BME280;3549;42.162;24.726;2023-05-20T11:11:01;47559.44;;;-141.97;41.34
7018;BME280;3549;42.162;24.726;2023-05-20T11:13:27;47632.47;;;-141.97;42.28
7018;BME280;3549;42.162;24.726;2023-05-20T11:15:52;47407.59;;;-141.97;41.30
7018;BME280;3549;42.162;24.726;2023-05-20T11:18:18;47336.50;;;-141.97;41.43
7018;BME280;3549;42.162;24.726;2023-05-20T11:20:45;47524.84;;;-141.97;42.01
7018;BME280;3549;42.162;24.726;2023-05-20T11:23:13;47622.88;;;-141.97;41.82
7018;BME280;3549;42.162;24.726;2023-05-20T11:25:39;47795.88;;;-141.97;40.66
7018;BME280;3549;42.162;24.726;2023-05-20T11:28:13;47551.75;;;-141.97;39.88
7018;BME280;3549;42.162;24.726;2023-05-20T11:30:42;47369.16;;;-141.97;38.17
7018;BME280;3549;42.162;24.726;2023-05-20T11:33:11;47301.91;;;-141.97;37.27
7018;BME280;3549;42.162;24.726;2023-05-20T11:35:44;47665.16;;;-141.97;36.70
7018;BME280;3549;42.162;24.726;2023-05-20T11:38:10;47532.53;;;-141.97;35.54
7018;BME280;3549;42.162;24.726;2023-05-20T11:40:35;47465.25;;;-141.97;34.36
7018;BME280;3549;42.162;24.726;2023-05-20T11:43:02;47530.59;;;-141.97;34.74
7018;BME280;3549;42.162;24.726;2023-05-20T11:45:52;47355.72;;;-141.97;35.37
7018;BME280;3549;42.162;24.726;2023-05-20T11:48:19;47422.97;;;-141.97;36.33
7018;BME280;3549;42.162;24.726;2023-05-20T11:50:45;47538.28;;;-141.97;36.53
7018;BME280;3549;42.162;24.726;2023-05-20T11:53:19;47634.41;;;-141.97;37.13
7018;BME280;3549;42.162;24.726;2023-05-20T11:55:56;47705.53;;;-141.97;36.87
7018;BME280;3549;42.162;24.726;2023-05-20T11:58:23;47496.00;;;-141.97;36.95
7018;BME280;3549;42.162;24.726;2023-05-20T12:00:50;47557.53;;;-141.97;37.63
7018;BME280;3549;42.162;24.726;2023-05-20T12:03:15;47513.31;;;-141.97;38.29
7018;BME280;3549;42.162;24.726;2023-05-20T12:05:41;47480.63;;;-141.97;38.54
7018;BME280;3549;42.162;24.726;2023-05-20T12:08:07;47553.69;;;-141.97;38.15
7018;BME280;3549;42.162;24.726;2023-05-20T12:10:32;47515.22;;;-141.97;38.75
7018;BME280;3549;42.162;24.726;2023-05-20T12:12:59;47436.44;;;-141.97;38.04
7018;BME280;3549;42.162;24.726;2023-05-20T12:15:25;47542.16;;;-141.97;37.83
7018;BME280;3549;42.162;24.726;2023-05-20T12:17:52;47542.16;;;-141.97;37.92
7018;BME280;3549;42.162;24.726;2023-05-20T12:20:21;47647.84;;;-141.97;37.66
7018;BME280;3549;42.162;24.726;2023-05-20T12:22:47;47469.09;;;-141.97;37.30
7018;BME280;3549;42.162;24.726;2023-05-20T12:25:14;47722.81;;;-141.97;37.19
7018;BME280;3549;42.162;24.726;2023-05-20T12:27:42;47663.22;;;-141.97;37.48
7018;BME280;3549;42.162;24.726;2023-05-20T12:30:14;47444.13;;;-141.97;37.10
7018;BME280;3549;42.162;24.726;2023-05-20T12:32:40;47507.53;;;-141.97;36.86
7018;BME280;3549;42.162;24.726;2023-05-20T12:35:08;47538.28;;;-141.97;37.22
7018;BME280;3549;42.162;24.726;2023-05-20T12:37:33;47642.09;;;-141.97;37.42
7018;BME280;3549;42.162;24.726;2023-05-20T12:39:59;47409.53;;;-141.97;37.43
7018;BME280;3549;42.162;24.726;2023-05-20T12:42:24;47503.69;;;-141.97;37.15
7018;BME280;3549;42.162;24.726;2023-05-20T12:44:50;47353.78;;;-141.97;36.51
7018;BME280;3549;42.162;24.726;2023-05-20T12:47:15;47688.22;;;-141.97;37.26
7018;BME280;3549;42.162;24.726;2023-05-20T12:49:41;47317.28;;;-141.97;37.71
7018;BME280;3549;42.162;24.726;2023-05-20T12:52:06;47432.59;;;-141.97;37.80
7018;BME280;3549;42.162;24.726;2023-05-20T12:54:32;47544.06;;;-141.97;37.95
7018;BME280;3549;42.162;24.726;2023-05-20T12:56:58;47607.50;;;-141.97;38.07